createdAt,value
2022-10-03T00:00:29.447Z,61.13
2022-10-03T00:02:45.841Z,61.09
2022-10-03T00:05:10.701Z,61.04
2022-10-03T00:07:46.508Z,60.92
2022-10-03T00:10:03.697Z,61.09
2022-10-03T00:12:17.544Z,61.08
2022-10-03T00:14:42.327Z,61.01
2022-10-03T00:16:48.765Z,61.10
2022-10-03T00:19:04.990Z,61.08
2022-10-03T00:21:30.650Z,61.08
2022-10-03T00:24:00.212Z,61.20
2022-10-03T00:26:30.953Z,61.31
2022-10-03T00:28:51.090Z,61.08
2022-10-03T00:31:02.593Z,61.17
2022-10-03T00:33:20.025Z,61.25
2022-10-03T00:35:44.697Z,61.14
2022-10-03T00:38:18.554Z,61.12
2022-10-03T00:40:39.798Z,61.28
2022-10-03T00:43:12.110Z,61.25
2022-10-03T00:45:32.625Z,61.40
2022-10-03T00:48:05.372Z,61.31
2022-10-03T00:50:46.100Z,61.49
2022-10-03T00:53:15.473Z,61.59
2022-10-03T00:55:30.201Z,61.37
2022-10-03T00:57:50.770Z,61.25
2022-10-03T01:00:11.287Z,61.37
2022-10-03T01:02:54.220Z,61.48
2022-10-03T01:05:09.828Z,61.29
2022-10-03T01:07:40.216Z,61.15
2022-10-03T01:10:11.892Z,61.19
2022-10-03T01:12:32.372Z,61.27
2022-10-03T01:15:00.961Z,61.21
2022-10-03T01:17:13.583Z,61.15
2022-10-03T01:19:31.240Z,61.19
2022-10-03T01:21:35.521Z,61.17
2022-10-03T01:24:03.987Z,61.06
2022-10-03T01:26:19.058Z,61.03
2022-10-03T01:29:02.688Z,60.78
2022-10-03T01:31:10.914Z,61.00
2022-10-03T01:33:27.968Z,61.04
2022-10-03T01:35:56.080Z,60.89
2022-10-03T01:38:19.636Z,61.01
2022-10-03T01:40:29.790Z,60.94
2022-10-03T01:42:46.286Z,60.93
2022-10-03T01:45:16.863Z,61.11
2022-10-03T01:47:39.336Z,61.24
2022-10-03T01:49:54.614Z,61.06
2022-10-03T01:52:04.552Z,61.08
2022-10-03T01:54:19.858Z,61.17
2022-10-03T01:56:34.374Z,61.23
2022-10-03T01:59:00.663Z,61.26
2022-10-03T02:01:12.090Z,61.47
2022-10-03T02:03:37.477Z,61.27
2022-10-03T02:05:54.464Z,61.23
2022-10-03T02:08:05.874Z,61.39
2022-10-03T02:10:46.470Z,61.32
2022-10-03T02:13:06.941Z,61.19
2022-10-03T02:15:15.624Z,61.24
2022-10-03T02:17:52.168Z,61.11
2022-10-03T02:20:23.892Z,61.19
2022-10-03T02:22:36.098Z,61.17
2022-10-03T02:24:42.326Z,61.22
2022-10-03T02:27:24.300Z,61.31
2022-10-03T02:30:08.377Z,61.25
2022-10-03T02:32:44.836Z,61.32
2022-10-03T02:35:10.682Z,61.37
2022-10-03T02:37:21.421Z,61.32
2022-10-03T02:39:47.353Z,61.36
2022-10-03T02:42:25.242Z,61.30
2022-10-03T02:44:55.884Z,61.40
2022-10-03T02:47:25.233Z,61.39
2022-10-03T02:50:00.757Z,61.29
2022-10-03T02:52:26.609Z,61.30
2022-10-03T02:54:41.988Z,61.47
2022-10-03T02:57:18.377Z,61.27
2022-10-03T02:59:28.727Z,61.35
2022-10-03T03:01:39.756Z,61.29
2022-10-03T03:04:08.771Z,61.40
2022-10-03T03:06:14.188Z,61.23
2022-10-03T03:08:54.135Z,61.27
2022-10-03T03:11:33.725Z,61.33
2022-10-03T03:13:54.974Z,61.25
2022-10-03T03:16:33.308Z,61.31
2022-10-03T03:18:37.354Z,61.35
2022-10-03T03:21:17.223Z,61.32
2022-10-03T03:23:55.634Z,61.30
2022-10-03T03:26:20.331Z,61.28
2022-10-03T03:28:55.593Z,61.29
2022-10-03T03:31:08.804Z,61.35
2022-10-03T03:33:24.833Z,61.41
2022-10-03T03:35:54.368Z,61.56
2022-10-03T03:38:10.809Z,61.58
2022-10-03T03:40:18.167Z,61.43
2022-10-03T03:42:48.694Z,61.54
2022-10-03T03:45:10.464Z,61.43
2022-10-03T03:47:18.208Z,61.52
2022-10-03T03:49:38.313Z,61.49
2022-10-03T03:51:46.405Z,61.51
2022-10-03T03:54:12.106Z,61.46
2022-10-03T03:56:49.429Z,61.58
2022-10-03T03:59:18.965Z,61.31
2022-10-03T04:01:27.743Z,61.58
2022-10-03T04:03:43.284Z,61.53
2022-10-03T04:06:17.563Z,61.53
2022-10-03T04:08:42.175Z,61.33
2022-10-03T04:10:57.176Z,61.42
2022-10-03T04:13:20.613Z,61.45
2022-10-03T04:15:47.353Z,61.37
2022-10-03T04:18:27.950Z,61.42
2022-10-03T04:20:47.801Z,61.39
2022-10-03T04:23:07.899Z,61.42
2022-10-03T04:25:23.083Z,61.37
2022-10-03T04:27:30.847Z,61.34
2022-10-03T04:29:56.621Z,61.38
2022-10-03T04:32:37.408Z,61.39
2022-10-03T04:34:48.538Z,61.26
2022-10-03T04:37:18.058Z,61.36
2022-10-03T04:39:36.461Z,61.28
2022-10-03T04:41:49.910Z,61.23
2022-10-03T04:44:13.396Z,61.32
2022-10-03T04:46:43.472Z,61.29
2022-10-03T04:48:50.930Z,61.21
2022-10-03T04:50:58.915Z,61.42
2022-10-03T04:53:29.171Z,61.20
2022-10-03T04:55:45.879Z,61.42
2022-10-03T04:57:50.149Z,61.21
2022-10-03T05:00:30.018Z,61.35
2022-10-03T05:02:45.022Z,61.21
2022-10-03T05:05:24.265Z,61.20
2022-10-03T05:07:42.583Z,61.22
2022-10-03T05:10:07.225Z,61.29
2022-10-03T05:12:18.730Z,61.09
2022-10-03T05:14:25.756Z,61.16
2022-10-03T05:16:55.640Z,61.13
2022-10-03T05:19:15.734Z,61.08
2022-10-03T05:21:20.233Z,60.95
2022-10-03T05:23:37.358Z,61.22
2022-10-03T05:25:45.975Z,60.97
2022-10-03T05:28:15.397Z,61.03
2022-10-03T05:30:34.979Z,61.17
2022-10-03T05:32:45.636Z,60.96
2022-10-03T05:35:21.312Z,61.16
2022-10-03T05:37:54.093Z,61.22
2022-10-03T05:40:04.530Z,61.31
2022-10-03T05:42:43.564Z,60.99
2022-10-03T05:45:01.170Z,61.44
2022-10-03T05:47:34.974Z,61.39
2022-10-03T05:49:54.861Z,61.45
2022-10-03T05:52:34.526Z,61.42
2022-10-03T05:54:57.178Z,61.53
2022-10-03T05:57:32.330Z,61.31
2022-10-03T05:59:55.763Z,61.46
2022-10-03T06:02:25.171Z,61.32
2022-10-03T06:04:59.062Z,61.20
2022-10-03T06:07:31.249Z,61.16
2022-10-03T06:09:54.689Z,61.26
2022-10-03T06:12:02.824Z,61.41
2022-10-03T06:14:35.257Z,61.35
2022-10-03T06:16:55.737Z,61.53
2022-10-03T06:19:36.876Z,61.45
2022-10-03T06:22:06.229Z,61.72
2022-10-03T06:24:46.482Z,61.60
2022-10-03T06:27:08.413Z,61.85
2022-10-03T06:29:16.074Z,61.79
2022-10-03T06:31:55.825Z,61.95
2022-10-03T06:34:26.655Z,61.93
2022-10-03T06:37:07.842Z,62.20
2022-10-03T06:39:28.012Z,62.25
2022-10-03T06:42:01.048Z,62.47
2022-10-03T06:44:31.199Z,62.48
2022-10-03T06:46:59.878Z,62.78
2022-10-03T06:49:48.320Z,62.61
2022-10-03T06:52:21.256Z,63.25
2022-10-03T06:55:04.677Z,63.10
2022-10-03T06:57:35.886Z,63.64
2022-10-03T07:00:07.113Z,63.64
2022-10-03T07:02:34.258Z,63.16
2022-10-03T07:05:06.787Z,63.29
2022-10-03T07:07:30.203Z,63.23
2022-10-03T07:10:01.129Z,63.17
2022-10-03T07:12:52.607Z,63.03
2022-10-03T07:15:11.976Z,63.16
2022-10-03T07:17:16.559Z,62.85
2022-10-03T07:19:37.066Z,62.97
2022-10-03T07:22:13.491Z,63.14
2022-10-03T07:24:36.965Z,63.16
2022-10-03T07:26:57.260Z,62.84
2022-10-03T07:29:31.353Z,63.33
2022-10-03T07:32:12.611Z,63.41
2022-10-03T07:34:14.231Z,62.90
2022-10-03T07:37:04.828Z,62.60
2022-10-03T07:39:33.449Z,62.56
2022-10-03T07:41:44.355Z,62.46
2022-10-03T07:44:17.976Z,62.41
2022-10-03T07:46:44.165Z,62.40
2022-10-03T07:49:18.786Z,62.47
2022-10-03T07:51:24.728Z,62.24
2022-10-03T07:53:59.164Z,62.24
2022-10-03T07:56:43.091Z,62.22
2022-10-03T07:59:01.813Z,62.06
2022-10-03T08:01:03.520Z,61.93
2022-10-03T08:03:07.890Z,61.92
2022-10-03T08:05:17.340Z,61.86
2022-10-03T08:08:10.619Z,61.80
2022-10-03T08:10:17.972Z,61.77
2022-10-03T08:12:52.150Z,61.70
2022-10-03T08:15:23.495Z,61.64
2022-10-03T08:17:57.864Z,61.80
2022-10-03T08:20:32.287Z,62.18
2022-10-03T08:23:16.661Z,62.36
2022-10-03T08:25:44.294Z,62.90
2022-10-03T08:28:23.701Z,62.94
2022-10-03T08:30:55.308Z,62.57
2022-10-03T08:33:08.260Z,62.30
2022-10-03T08:35:22.016Z,63.67
2022-10-03T08:37:44.707Z,64.17
2022-10-03T08:40:11.468Z,64.12
2022-10-03T08:42:55.040Z,64.04
2022-10-03T08:45:28.311Z,63.15
2022-10-03T08:47:42.273Z,62.41
2022-10-03T08:50:18.193Z,61.46
2022-10-03T08:52:38.919Z,61.26
2022-10-03T08:54:43.499Z,60.74
2022-10-03T08:56:54.223Z,60.49
2022-10-03T08:59:31.722Z,60.24
2022-10-03T09:02:07.609Z,59.59
2022-10-03T09:04:21.546Z,59.41
2022-10-03T09:06:58.552Z,59.51
2022-10-03T09:09:27.990Z,58.88
2022-10-03T09:11:50.969Z,58.98
2022-10-03T09:14:27.297Z,59.23
2022-10-03T09:16:45.157Z,58.77
2022-10-03T09:19:02.211Z,58.32
2022-10-03T09:21:37.173Z,58.55
2022-10-03T09:23:57.597Z,58.75
2022-10-03T09:26:21.892Z,58.77
2022-10-03T09:28:49.500Z,58.50
2022-10-03T09:31:10.220Z,58.80
2022-10-03T09:33:30.538Z,58.18
2022-10-03T09:35:47.904Z,58.22
2022-10-03T09:38:08.294Z,58.52
2022-10-03T09:40:51.281Z,58.14
2022-10-03T09:43:01.530Z,57.92
2022-10-03T09:45:33.077Z,58.05
2022-10-03T09:47:58.968Z,57.68
2022-10-03T09:50:36.704Z,57.42
2022-10-03T09:52:47.321Z,58.03
2022-10-03T09:55:15.179Z,57.88
2022-10-03T09:57:54.566Z,57.06
2022-10-03T10:00:14.047Z,57.72
2022-10-03T10:02:30.914Z,57.51
2022-10-03T10:05:01.516Z,57.25
2022-10-03T10:07:28.187Z,57.18
2022-10-03T10:09:57.814Z,56.97
2022-10-03T10:12:28.015Z,57.19
2022-10-03T10:15:04.597Z,56.92
2022-10-03T10:17:26.325Z,56.81
2022-10-03T10:19:51.266Z,56.64
2022-10-03T10:22:17.020Z,57.16
2022-10-03T10:24:36.841Z,57.08
2022-10-03T10:27:09.989Z,56.86
2022-10-03T10:29:38.153Z,56.45
2022-10-03T10:32:21.779Z,56.61
2022-10-03T10:34:44.768Z,56.60
2022-10-03T10:37:23.463Z,56.33
2022-10-03T10:40:02.514Z,56.69
2022-10-03T10:42:41.689Z,56.46
2022-10-03T10:44:52.485Z,56.65
2022-10-03T10:47:21.655Z,56.61
2022-10-03T10:49:54.228Z,56.67
2022-10-03T10:52:22.991Z,56.48
2022-10-03T10:54:30.637Z,56.21
2022-10-03T10:57:23.365Z,56.02
2022-10-03T11:00:02.132Z,55.48
2022-10-03T11:02:25.816Z,55.74
2022-10-03T11:05:19.480Z,55.04
2022-10-03T11:07:55.913Z,55.48
2022-10-03T11:10:15.583Z,55.39
2022-10-03T11:12:38.807Z,56.29
2022-10-03T11:15:02.170Z,56.42
2022-10-03T11:17:25.567Z,56.42
2022-10-03T11:19:52.942Z,56.30
2022-10-03T11:22:19.456Z,56.12
2022-10-03T11:24:58.601Z,56.12
2022-10-03T11:27:02.968Z,56.40
2022-10-03T11:29:53.971Z,56.65
2022-10-03T11:32:36.361Z,56.88
2022-10-03T11:35:15.628Z,56.88
2022-10-03T11:37:35.293Z,56.72
2022-10-03T11:39:54.821Z,56.65
2022-10-03T11:42:19.507Z,56.31
2022-10-03T11:44:25.814Z,55.76
2022-10-03T11:46:46.917Z,55.17
2022-10-03T11:48:59.830Z,55.08
2022-10-03T11:51:57.541Z,54.67
2022-10-03T11:54:31.436Z,53.86
2022-10-03T11:56:34.007Z,54.80
2022-10-03T11:58:52.532Z,55.11
2022-10-03T12:01:13.071Z,54.55
2022-10-03T12:03:30.066Z,54.61
2022-10-03T12:05:50.219Z,54.74
2022-10-03T12:08:34.651Z,53.81
2022-10-03T12:11:00.870Z,53.56
2022-10-03T12:13:10.944Z,53.73
2022-10-03T12:15:34.701Z,53.98
2022-10-03T12:17:43.341Z,54.49
2022-10-03T12:20:04.075Z,54.09
2022-10-03T12:22:33.293Z,54.60
2022-10-03T12:24:41.362Z,54.52
2022-10-03T12:27:01.425Z,55.30
2022-10-03T12:29:05.151Z,54.91
2022-10-03T12:31:23.815Z,55.09
2022-10-03T12:34:03.835Z,54.82
2022-10-03T12:36:19.622Z,54.79
2022-10-03T12:38:50.770Z,54.69
2022-10-03T12:41:11.535Z,54.79
2022-10-03T12:43:36.190Z,54.82
2022-10-03T12:45:48.102Z,54.84
2022-10-03T12:48:31.556Z,54.82
2022-10-03T12:50:55.246Z,54.37
2022-10-03T12:53:15.058Z,54.23
2022-10-03T12:55:33.077Z,54.15
2022-10-03T12:58:20.195Z,54.33
2022-10-03T13:00:34.299Z,54.00
2022-10-03T13:03:02.158Z,53.62
2022-10-03T13:05:29.626Z,53.53
2022-10-03T13:07:57.725Z,53.39
2022-10-03T13:10:14.642Z,53.77
2022-10-03T13:12:28.009Z,54.14
2022-10-03T13:14:48.643Z,54.07
2022-10-03T13:17:00.115Z,54.62
2022-10-03T13:19:07.644Z,54.80
2022-10-03T13:21:33.759Z,54.81
2022-10-03T13:23:59.976Z,55.04
2022-10-03T13:26:22.295Z,55.00
2022-10-03T13:28:32.477Z,54.84
2022-10-03T13:31:03.699Z,55.15
2022-10-03T13:33:17.460Z,54.30
2022-10-03T13:35:42.117Z,54.39
2022-10-03T13:38:07.592Z,53.49
2022-10-03T13:40:16.842Z,53.64
2022-10-03T13:42:21.896Z,53.59
2022-10-03T13:44:54.455Z,53.70
2022-10-03T13:47:27.943Z,53.55
2022-10-03T13:49:37.770Z,53.52
2022-10-03T13:51:52.965Z,52.45
2022-10-03T13:54:08.188Z,52.46
2022-10-03T13:56:41.055Z,51.90
2022-10-03T13:58:44.010Z,52.36
2022-10-03T14:01:04.295Z,51.36
2022-10-03T14:03:22.762Z,51.41
2022-10-03T14:05:50.773Z,50.61
2022-10-03T14:08:24.875Z,51.03
2022-10-03T14:10:49.031Z,51.04
2022-10-03T14:12:55.744Z,51.15
2022-10-03T14:15:18.129Z,50.27
2022-10-03T14:17:34.315Z,50.56
2022-10-03T14:20:05.350Z,50.31
2022-10-03T14:22:30.666Z,50.36
2022-10-03T14:24:42.964Z,50.38
2022-10-03T14:26:52.980Z,50.37
2022-10-03T14:29:06.370Z,50.38
2022-10-03T14:31:19.277Z,50.49
2022-10-03T14:33:29.121Z,50.64
2022-10-03T14:35:38.663Z,50.63
2022-10-03T14:37:49.289Z,50.27
2022-10-03T14:40:00.184Z,50.64
2022-10-03T14:42:11.312Z,50.37
2022-10-03T14:44:34.466Z,50.33
2022-10-03T14:46:48.474Z,50.35
2022-10-03T14:48:55.644Z,50.72
2022-10-03T14:51:19.148Z,50.39
2022-10-03T14:53:29.709Z,50.65
2022-10-03T14:55:38.456Z,50.31
2022-10-03T14:58:23.131Z,50.13
2022-10-03T15:00:45.432Z,50.38
2022-10-03T15:02:47.510Z,50.64
2022-10-03T15:04:54.627Z,50.58
2022-10-03T15:07:00.906Z,50.62
2022-10-03T15:09:09.823Z,50.61
2022-10-03T15:11:15.187Z,50.62
2022-10-03T15:13:19.872Z,50.62
2022-10-03T15:15:39.731Z,50.01
2022-10-03T15:17:53.032Z,50.24
2022-10-03T15:19:59.943Z,50.33
2022-10-03T15:22:22.062Z,50.45
2022-10-03T15:24:30.929Z,50.45
2022-10-03T15:26:37.993Z,49.83
2022-10-03T15:28:48.580Z,49.96
2022-10-03T15:30:54.052Z,50.39
2022-10-03T15:33:07.364Z,50.13
2022-10-03T15:35:20.543Z,50.10
2022-10-03T15:37:26.835Z,50.31
2022-10-03T15:39:35.440Z,50.02
2022-10-03T15:42:13.542Z,50.13
2022-10-03T15:44:22.095Z,49.99
2022-10-03T15:46:36.342Z,49.83
2022-10-03T15:48:43.135Z,50.24
2022-10-03T15:50:56.156Z,49.99
2022-10-03T15:53:24.159Z,49.96
2022-10-03T15:55:30.056Z,50.00
2022-10-03T15:57:38.422Z,50.13
2022-10-03T15:59:45.343Z,50.36
2022-10-03T16:01:52.729Z,50.32
2022-10-03T16:04:01.683Z,50.46
2022-10-03T16:06:11.406Z,49.99
2022-10-03T16:08:20.639Z,50.25
2022-10-03T16:10:27.240Z,50.30
2022-10-03T16:12:55.884Z,50.25
2022-10-03T16:15:20.885Z,50.44
2022-10-03T16:17:39.989Z,50.08
2022-10-03T16:20:06.353Z,50.10
2022-10-03T16:22:33.375Z,50.08
2022-10-03T16:24:46.921Z,50.79
2022-10-03T16:26:53.637Z,50.63
2022-10-03T16:29:17.614Z,50.16
2022-10-03T16:31:28.767Z,50.47
2022-10-03T16:33:40.937Z,50.30
2022-10-03T16:35:47.900Z,50.83
2022-10-03T16:37:53.604Z,50.50
2022-10-03T16:40:04.152Z,50.40
2022-10-03T16:42:20.529Z,50.60
2022-10-03T16:44:43.460Z,50.29
2022-10-03T16:46:47.164Z,50.90
2022-10-03T16:49:08.445Z,50.75
2022-10-03T16:51:18.721Z,50.38
2022-10-03T16:53:22.397Z,50.78
2022-10-03T16:55:31.250Z,50.78
2022-10-03T16:57:41.951Z,50.54
2022-10-03T16:59:49.164Z,50.56
2022-10-03T17:01:54.749Z,51.06
2022-10-03T17:04:15.928Z,50.95
2022-10-03T17:06:36.266Z,50.89
2022-10-03T17:08:44.284Z,50.85
2022-10-03T17:10:54.012Z,51.09
2022-10-03T17:13:03.567Z,51.12
2022-10-03T17:15:29.254Z,51.04
2022-10-03T17:17:35.211Z,51.05
2022-10-03T17:19:42.552Z,51.33
2022-10-03T17:21:54.759Z,51.32
2022-10-03T17:24:14.784Z,51.41
2022-10-03T17:26:33.328Z,51.64
2022-10-03T17:29:13.321Z,51.52
2022-10-03T17:31:24.483Z,51.63
2022-10-03T17:33:38.233Z,51.49
2022-10-03T17:36:05.175Z,51.59
2022-10-03T17:38:49.689Z,51.53
2022-10-03T17:41:33.653Z,51.71
2022-10-03T17:43:57.067Z,51.70
2022-10-03T17:46:06.889Z,51.92
2022-10-03T17:48:19.691Z,51.91
2022-10-03T17:50:30.630Z,51.91
2022-10-03T17:52:33.848Z,51.90
2022-10-03T17:54:39.185Z,52.01
2022-10-03T17:56:45.357Z,52.04
2022-10-03T17:58:56.678Z,52.04
2022-10-03T18:01:15.712Z,52.10
2022-10-03T18:03:33.817Z,52.21
2022-10-03T18:05:52.323Z,52.33
2022-10-03T18:07:55.331Z,52.23
2022-10-03T18:10:00.174Z,52.35
2022-10-03T18:12:16.366Z,52.19
2022-10-03T18:14:18.452Z,52.43
2022-10-03T18:16:36.413Z,52.37
2022-10-03T18:18:59.629Z,52.36
2022-10-03T18:21:08.114Z,52.40
2022-10-03T18:23:36.818Z,52.42
2022-10-03T18:26:19.705Z,52.55
2022-10-03T18:28:32.664Z,52.96
2022-10-03T18:30:50.849Z,52.81
2022-10-03T18:32:55.862Z,52.80
2022-10-03T18:35:22.193Z,52.91
2022-10-03T18:37:26.878Z,52.87
2022-10-03T18:39:37.678Z,52.96
2022-10-03T18:41:49.775Z,53.21
2022-10-03T18:44:00.321Z,53.00
2022-10-03T18:46:16.410Z,53.09
2022-10-03T18:49:03.078Z,53.08
2022-10-03T18:51:19.755Z,53.06
2022-10-03T18:53:31.989Z,53.14
2022-10-03T18:56:03.343Z,53.33
2022-10-03T18:58:36.918Z,53.11
2022-10-03T19:00:50.960Z,53.30
2022-10-03T19:03:18.879Z,53.39
2022-10-03T19:05:24.460Z,53.49
2022-10-03T19:07:31.352Z,53.25
2022-10-03T19:09:43.810Z,53.49
2022-10-03T19:12:14.577Z,53.42
2022-10-03T19:14:36.156Z,53.52
2022-10-03T19:17:05.868Z,53.60
2022-10-03T19:19:41.503Z,53.58
2022-10-03T19:21:44.013Z,53.69
2022-10-03T19:24:01.498Z,53.66
2022-10-03T19:26:10.434Z,53.74
2022-10-03T19:28:27.812Z,53.67
2022-10-03T19:30:31.963Z,53.60
2022-10-03T19:33:02.562Z,53.70
2022-10-03T19:35:05.724Z,53.59
2022-10-03T19:37:25.332Z,53.57
2022-10-03T19:39:33.664Z,53.63
2022-10-03T19:41:55.182Z,53.72
2022-10-03T19:44:12.779Z,53.71
2022-10-03T19:46:14.937Z,53.67
2022-10-03T19:48:28.369Z,53.73
2022-10-03T19:50:35.492Z,53.75
2022-10-03T19:52:41.897Z,53.55
2022-10-03T19:54:50.287Z,53.55
2022-10-03T19:56:53.181Z,53.63
2022-10-03T19:59:39.590Z,53.44
2022-10-03T20:01:51.511Z,53.67
2022-10-03T20:03:57.814Z,53.72
2022-10-03T20:06:08.655Z,53.23
2022-10-03T20:08:27.343Z,53.68
2022-10-03T20:10:41.126Z,53.55
2022-10-03T20:12:53.600Z,53.53
2022-10-03T20:15:29.063Z,53.53
2022-10-03T20:17:32.687Z,53.51
2022-10-03T20:19:40.858Z,53.65
2022-10-03T20:21:55.514Z,53.66
2022-10-03T20:24:08.423Z,53.63
2022-10-03T20:26:24.537Z,53.62
2022-10-03T20:29:06.996Z,53.62
2022-10-03T20:31:09.541Z,53.78
2022-10-03T20:33:35.186Z,53.68
2022-10-03T20:35:52.452Z,53.55
2022-10-03T20:38:20.725Z,53.59
2022-10-03T20:40:36.935Z,53.46
2022-10-03T20:42:46.744Z,53.71
2022-10-03T20:45:03.526Z,53.46
2022-10-03T20:47:29.978Z,53.57
2022-10-03T20:49:39.828Z,53.76
2022-10-03T20:52:03.635Z,53.48
2022-10-03T20:54:10.437Z,53.52
2022-10-03T20:56:15.128Z,53.86
2022-10-03T20:58:28.719Z,53.71
2022-10-03T21:00:31.217Z,53.51
2022-10-03T21:03:00.108Z,53.81
2022-10-03T21:05:12.430Z,53.83
2022-10-03T21:07:32.627Z,53.65
2022-10-03T21:09:34.259Z,53.93
2022-10-03T21:11:42.618Z,53.71
2022-10-03T21:14:26.542Z,53.90
2022-10-03T21:16:38.832Z,53.89
2022-10-03T21:18:45.203Z,53.91
2022-10-03T21:20:47.397Z,53.85
2022-10-03T21:22:52.698Z,53.89
2022-10-03T21:25:01.940Z,54.13
2022-10-03T21:27:15.802Z,54.03
2022-10-03T21:29:36.233Z,53.88
2022-10-03T21:31:50.427Z,54.11
2022-10-03T21:34:20.904Z,54.12
2022-10-03T21:36:58.511Z,54.13
2022-10-03T21:39:17.959Z,54.20
2022-10-03T21:41:24.549Z,54.13
2022-10-03T21:44:15.511Z,54.11
2022-10-03T21:46:51.795Z,54.00
2022-10-03T21:49:20.340Z,54.22
2022-10-03T21:51:24.569Z,54.09
2022-10-03T21:53:43.167Z,54.24
2022-10-03T21:56:07.864Z,54.22
2022-10-03T21:58:25.101Z,54.19
2022-10-03T22:00:29.444Z,54.21
2022-10-03T22:02:40.222Z,54.04
2022-10-03T22:04:53.315Z,54.16
2022-10-03T22:07:10.668Z,54.26
2022-10-03T22:09:14.819Z,54.34
2022-10-03T22:11:28.353Z,54.15
2022-10-03T22:13:38.633Z,54.22
2022-10-03T22:15:48.969Z,54.22
2022-10-03T22:18:08.636Z,54.37
2022-10-03T22:20:21.982Z,54.34
2022-10-03T22:22:38.920Z,54.31
2022-10-03T22:25:07.999Z,54.45
2022-10-03T22:27:14.255Z,54.53
2022-10-03T22:29:36.637Z,54.59
2022-10-03T22:31:54.086Z,54.63
2022-10-03T22:34:26.830Z,54.57
2022-10-03T22:36:30.228Z,54.52
2022-10-03T22:38:35.526Z,54.95
2022-10-03T22:40:40.648Z,54.60
2022-10-03T22:42:53.992Z,54.59
2022-10-03T22:44:56.877Z,54.67
2022-10-03T22:47:11.425Z,54.88
2022-10-03T22:49:25.283Z,54.89
2022-10-03T22:51:27.899Z,54.85
2022-10-03T22:53:35.179Z,54.88
2022-10-03T22:55:38.728Z,54.81
2022-10-03T22:57:45.117Z,55.00
2022-10-03T22:59:55.549Z,55.05
2022-10-03T23:02:06.656Z,55.05
2022-10-03T23:04:16.484Z,55.16
2022-10-03T23:06:43.606Z,55.14
2022-10-03T23:08:54.528Z,55.45
2022-10-03T23:11:16.154Z,55.40
2022-10-03T23:13:39.390Z,55.48
2022-10-03T23:15:44.413Z,55.18
2022-10-03T23:18:07.038Z,55.42
2022-10-03T23:20:30.264Z,55.57
2022-10-03T23:22:38.398Z,55.38
2022-10-03T23:24:53.485Z,55.59
2022-10-03T23:27:01.399Z,55.62
2022-10-03T23:29:14.553Z,55.75
2022-10-03T23:31:51.546Z,55.70
2022-10-03T23:33:56.064Z,55.72
2022-10-03T23:36:14.037Z,55.83
2022-10-03T23:38:33.765Z,55.79
2022-10-03T23:40:40.021Z,55.82
2022-10-03T23:42:44.655Z,55.93
2022-10-03T23:44:50.617Z,55.73
2022-10-03T23:46:52.600Z,55.96
2022-10-03T23:48:57.780Z,56.05
2022-10-03T23:51:06.930Z,56.05
2022-10-03T23:53:38.945Z,56.13
2022-10-03T23:55:43.927Z,55.98
2022-10-03T23:57:46.179Z,56.12
2022-10-03T23:59:49.565Z,56.02
